createdAt,value
2018-02-16T00:01:09.088Z,7.25
2018-02-16T00:03:36.573Z,7.09
2018-02-16T00:06:04.032Z,7.29
2018-02-16T00:08:31.468Z,7.04
2018-02-16T00:10:58.968Z,7.09
2018-02-16T00:13:26.418Z,6.67
2018-02-16T00:15:53.980Z,6.72
2018-02-16T00:18:21.442Z,6.62
2018-02-16T00:20:49.073Z,6.95
2018-02-16T00:23:16.514Z,6.81
2018-02-16T00:25:44.126Z,7.18
2018-02-16T00:28:11.652Z,7.29
2018-02-16T00:30:39.081Z,7.37
2018-02-16T00:33:06.538Z,7.27
2018-02-16T00:35:33.985Z,7.19
2018-02-16T00:38:01.441Z,7.40
2018-02-16T00:40:28.874Z,7.13
2018-02-16T00:42:56.312Z,7.09
2018-02-16T00:45:23.736Z,7.04
2018-02-16T00:47:51.198Z,7.05
2018-02-16T00:50:18.629Z,6.98
2018-02-16T00:52:46.124Z,6.82
2018-02-16T00:55:13.668Z,6.80
2018-02-16T00:57:41.887Z,6.57
2018-02-16T01:00:09.336Z,6.78
2018-02-16T01:02:37.521Z,6.89
2018-02-16T01:05:04.981Z,6.89
2018-02-16T01:07:32.409Z,7.09
2018-02-16T01:09:59.868Z,6.95
2018-02-16T01:12:27.306Z,6.98
2018-02-16T01:14:54.785Z,7.08
2018-02-16T01:17:22.215Z,6.77
2018-02-16T01:19:49.692Z,6.51
2018-02-16T01:22:17.128Z,6.40
2018-02-16T01:24:44.556Z,6.46
2018-02-16T01:27:12.063Z,6.40
2018-02-16T01:29:39.505Z,6.76
2018-02-16T01:32:06.992Z,6.90
2018-02-16T01:34:34.518Z,6.77
2018-02-16T01:37:02.098Z,6.85
2018-02-16T01:39:29.544Z,6.79
2018-02-16T01:41:57.007Z,6.79
2018-02-16T01:44:24.537Z,6.54
2018-02-16T01:46:51.990Z,6.83
2018-02-16T01:49:19.426Z,6.65
2018-02-16T01:51:46.868Z,6.74
2018-02-16T01:54:14.329Z,6.99
2018-02-16T01:56:42.064Z,6.77
2018-02-16T01:59:09.585Z,6.78
2018-02-16T02:01:37.013Z,6.80
2018-02-16T02:04:04.456Z,6.79
2018-02-16T02:06:31.906Z,6.85
2018-02-16T02:08:59.369Z,6.77
2018-02-16T02:11:26.800Z,6.88
2018-02-16T02:13:54.247Z,7.01
2018-02-16T02:16:21.683Z,7.03
2018-02-16T02:18:49.224Z,7.08
2018-02-16T02:21:16.681Z,6.85
2018-02-16T02:23:44.132Z,6.99
2018-02-16T02:26:12.700Z,7.06
2018-02-16T02:28:40.173Z,6.97
2018-02-16T02:31:07.734Z,7.37
2018-02-16T02:33:35.191Z,7.46
2018-02-16T02:36:02.648Z,7.34
2018-02-16T02:38:30.125Z,7.31
2018-02-16T02:40:57.767Z,7.52
2018-02-16T02:43:25.232Z,7.21
2018-02-16T02:45:52.755Z,7.17
2018-02-16T02:48:20.192Z,7.22
2018-02-16T02:50:47.645Z,7.26
2018-02-16T02:53:15.094Z,7.24
2018-02-16T02:55:43.332Z,7.38
2018-02-16T02:58:10.781Z,7.50
2018-02-16T03:00:38.237Z,7.58
2018-02-16T03:03:05.680Z,7.48
2018-02-16T03:05:33.124Z,7.58
2018-02-16T03:08:00.592Z,7.69
2018-02-16T03:10:28.073Z,7.81
2018-02-16T03:12:55.520Z,7.35
2018-02-16T03:15:22.981Z,7.00
2018-02-16T03:17:50.408Z,7.12
2018-02-16T03:20:17.842Z,6.95
2018-02-16T03:22:45.301Z,6.91
2018-02-16T03:25:12.749Z,6.83
2018-02-16T03:27:40.799Z,6.99
2018-02-16T03:30:08.238Z,6.95
2018-02-16T03:32:35.690Z,7.23
2018-02-16T03:35:03.300Z,6.81
2018-02-16T03:37:30.757Z,6.83
2018-02-16T03:39:58.280Z,6.47
2018-02-16T03:42:25.729Z,6.73
2018-02-16T03:44:53.178Z,6.76
2018-02-16T03:47:20.689Z,7.04
2018-02-16T03:49:48.124Z,6.88
2018-02-16T03:52:15.604Z,6.76
2018-02-16T03:54:43.060Z,6.90
2018-02-16T03:57:10.485Z,7.20
2018-02-16T03:59:38.061Z,7.08
2018-02-16T04:02:05.569Z,6.87
2018-02-16T04:04:33.026Z,6.83
2018-02-16T04:07:00.504Z,6.84
2018-02-16T04:09:27.964Z,6.66
2018-02-16T04:11:55.410Z,6.58
2018-02-16T04:14:22.870Z,6.74
2018-02-16T04:16:50.296Z,6.71
2018-02-16T04:19:17.767Z,7.06
2018-02-16T04:21:45.204Z,7.17
2018-02-16T04:24:12.656Z,7.16
2018-02-16T04:26:40.089Z,6.93
2018-02-16T04:29:07.605Z,7.10
2018-02-16T04:31:35.045Z,7.15
2018-02-16T04:34:02.481Z,6.74
2018-02-16T04:36:30.006Z,6.72
2018-02-16T04:38:57.523Z,6.68
2018-02-16T04:41:24.997Z,6.76
2018-02-16T04:43:52.421Z,6.97
2018-02-16T04:46:19.868Z,7.01
2018-02-16T04:48:47.372Z,7.10
2018-02-16T04:51:14.817Z,7.04
2018-02-16T04:53:42.948Z,7.34
2018-02-16T04:56:10.417Z,7.44
2018-02-16T04:58:37.846Z,6.91
2018-02-16T05:01:05.343Z,7.07
2018-02-16T05:03:32.780Z,7.15
2018-02-16T05:06:00.242Z,7.12
2018-02-16T05:08:27.671Z,7.09
2018-02-16T05:10:55.125Z,7.03
2018-02-16T05:13:22.554Z,7.12
2018-02-16T05:15:50.269Z,7.30
2018-02-16T05:18:17.798Z,7.34
2018-02-16T05:20:45.236Z,7.33
2018-02-16T05:23:13.781Z,7.20
2018-02-16T05:25:41.230Z,7.18
2018-02-16T05:28:08.685Z,7.01
2018-02-16T05:30:36.123Z,6.92
2018-02-16T05:33:03.680Z,7.00
2018-02-16T05:35:31.125Z,6.67
2018-02-16T05:37:58.592Z,6.74
2018-02-16T05:40:26.042Z,6.53
2018-02-16T05:42:53.529Z,6.83
2018-02-16T05:45:21.010Z,6.80
2018-02-16T05:47:48.489Z,6.95
2018-02-16T05:50:15.928Z,7.03
2018-02-16T05:52:44.285Z,6.89
2018-02-16T05:55:11.741Z,6.89
2018-02-16T05:57:39.197Z,6.78
2018-02-16T06:00:07.647Z,6.79
2018-02-16T06:02:35.271Z,6.83
2018-02-16T06:05:02.896Z,6.59
2018-02-16T06:07:30.340Z,6.89
2018-02-16T06:09:57.796Z,6.52
2018-02-16T06:25:33.082Z,7.36
2018-02-16T06:28:00.540Z,7.28
2018-02-16T06:30:28.013Z,7.17
2018-02-16T06:32:55.437Z,6.84
2018-02-16T06:35:22.893Z,6.71
2018-02-16T06:37:50.351Z,6.69
2018-02-16T06:40:18.015Z,6.84
2018-02-16T06:42:45.486Z,6.81
2018-02-16T06:45:13.269Z,6.79
2018-02-16T06:47:40.711Z,7.00
2018-02-16T06:50:08.254Z,6.74
2018-02-16T06:52:35.729Z,6.93
2018-02-16T06:55:03.192Z,6.85
2018-02-16T06:57:30.627Z,6.87
2018-02-16T06:59:58.113Z,6.51
2018-02-16T07:02:25.549Z,6.41
2018-02-16T07:04:53.002Z,6.11
2018-02-16T07:07:20.454Z,6.60
2018-02-16T07:09:47.916Z,6.63
2018-02-16T07:12:15.383Z,6.70
2018-02-16T07:14:42.826Z,6.15
2018-02-16T07:17:10.350Z,6.03
2018-02-16T07:19:37.794Z,6.11
2018-02-16T07:22:05.237Z,6.35
2018-02-16T07:24:32.670Z,6.62
2018-02-16T07:27:00.141Z,6.70
2018-02-16T07:29:27.577Z,6.46
2018-02-16T07:31:55.030Z,6.48
2018-02-16T07:34:22.482Z,6.53
2018-02-16T07:36:49.922Z,7.08
2018-02-16T07:39:17.378Z,7.08
2018-02-16T07:41:44.944Z,7.28
2018-02-16T07:44:12.433Z,7.32
2018-02-16T07:46:39.873Z,7.29
2018-02-16T07:49:07.414Z,7.37
2018-02-16T07:51:34.860Z,7.38
2018-02-16T07:54:02.583Z,7.24
2018-02-16T07:56:30.021Z,7.13
2018-02-16T07:58:57.644Z,6.77
2018-02-16T08:01:25.131Z,6.86
2018-02-16T08:03:52.583Z,6.73
2018-02-16T08:06:20.015Z,6.68
2018-02-16T08:08:47.525Z,6.76
2018-02-16T08:11:14.971Z,6.85
2018-02-16T08:13:42.581Z,7.28
2018-02-16T08:16:10.029Z,7.38
2018-02-16T08:18:37.485Z,7.38
2018-02-16T08:21:05.101Z,7.51
2018-02-16T08:23:32.753Z,7.19
2018-02-16T08:26:00.201Z,7.04
2018-02-16T08:28:27.649Z,7.05
2018-02-16T08:30:55.107Z,7.06
2018-02-16T08:33:22.547Z,7.21
2018-02-16T08:35:50.008Z,7.30
2018-02-16T08:38:17.446Z,7.10
2018-02-16T08:40:45.054Z,7.44
2018-02-16T08:43:12.497Z,7.29
2018-02-16T08:45:39.951Z,7.38
2018-02-16T08:48:07.389Z,7.15
2018-02-16T08:50:34.847Z,6.96
2018-02-16T08:53:02.280Z,6.65
2018-02-16T08:55:29.732Z,7.09
2018-02-16T08:57:57.546Z,7.61
2018-02-16T09:00:25.235Z,7.35
2018-02-16T09:02:52.970Z,6.99
2018-02-16T09:05:22.937Z,6.91
2018-02-16T09:07:52.896Z,6.82
2018-02-16T09:10:20.488Z,6.92
2018-02-16T09:12:48.022Z,7.34
2018-02-16T09:15:17.961Z,7.16
2018-02-16T09:17:45.446Z,7.24
2018-02-16T09:20:12.968Z,6.98
2018-02-16T09:22:40.654Z,7.31
2018-02-16T09:25:08.133Z,7.57
2018-02-16T09:27:35.586Z,7.97
2018-02-16T09:30:03.079Z,8.12
2018-02-16T09:32:30.573Z,8.09
2018-02-16T09:34:58.090Z,7.84
2018-02-16T09:37:25.637Z,8.02
2018-02-16T09:39:53.843Z,7.83
2018-02-16T09:42:21.358Z,7.70
2018-02-16T09:44:48.844Z,7.74
2018-02-16T09:47:16.400Z,7.50
2018-02-16T09:49:43.888Z,7.62
2018-02-16T09:52:11.401Z,7.57
2018-02-16T09:54:38.900Z,7.31
2018-02-16T09:57:06.453Z,7.63
2018-02-16T09:59:33.956Z,7.53
2018-02-16T10:02:01.474Z,7.74
2018-02-16T10:04:28.953Z,8.15
2018-02-16T10:06:56.414Z,8.01
2018-02-16T10:09:23.901Z,7.78
2018-02-16T10:11:51.463Z,8.03
2018-02-16T10:14:18.925Z,7.92
2018-02-16T10:16:46.384Z,7.53
2018-02-16T10:19:14.166Z,8.03
2018-02-16T10:21:41.650Z,8.22
2018-02-16T10:24:09.325Z,8.50
2018-02-16T10:26:36.777Z,8.76
2018-02-16T10:29:04.273Z,8.10
2018-02-16T10:31:31.745Z,7.74
2018-02-16T10:33:59.186Z,8.22
2018-02-16T10:36:26.678Z,8.61
2018-02-16T10:38:54.126Z,8.70
2018-02-16T10:41:21.606Z,8.72
2018-02-16T10:43:49.157Z,8.82
2018-02-16T10:46:16.768Z,8.49
2018-02-16T10:48:45.236Z,8.43
2018-02-16T10:51:13.118Z,8.82
2018-02-16T10:53:40.590Z,9.26
2018-02-16T10:56:08.094Z,9.48
2018-02-16T10:58:36.700Z,9.42
2018-02-16T11:01:09.883Z,9.73
2018-02-16T11:03:38.363Z,9.97
2018-02-16T11:06:12.220Z,9.33
2018-02-16T11:08:45.303Z,9.08
2018-02-16T11:11:12.874Z,9.00
2018-02-16T11:13:40.412Z,9.22
2018-02-16T11:16:07.846Z,9.67
2018-02-16T11:18:35.395Z,9.15
2018-02-16T11:21:02.978Z,9.38
2018-02-16T11:23:30.510Z,9.75
2018-02-16T11:25:57.955Z,10.07
2018-02-16T11:28:25.483Z,10.07
2018-02-16T11:30:53.015Z,9.63
2018-02-16T11:33:20.801Z,10.10
2018-02-16T11:35:48.276Z,10.16
2018-02-16T11:38:15.810Z,10.04
2018-02-16T11:40:43.488Z,10.00
2018-02-16T11:43:10.975Z,10.10
2018-02-16T11:45:38.424Z,10.56
2018-02-16T11:48:06.384Z,11.01
2018-02-16T11:50:33.872Z,10.85
2018-02-16T11:53:01.483Z,10.54
2018-02-16T11:55:28.987Z,10.90
2018-02-16T11:57:56.421Z,10.55
2018-02-16T12:00:23.889Z,10.72
2018-02-16T12:02:52.714Z,11.53
2018-02-16T12:05:20.170Z,12.08
2018-02-16T12:07:47.644Z,12.53
2018-02-16T12:10:15.601Z,12.67
2018-02-16T12:12:43.069Z,12.44
2018-02-16T12:15:10.558Z,12.73
2018-02-16T12:17:38.038Z,13.21
2018-02-16T12:20:05.640Z,13.39
2018-02-16T12:22:33.153Z,13.51
2018-02-16T12:25:00.799Z,13.68
2018-02-16T12:27:28.293Z,13.92
2018-02-16T12:29:55.771Z,14.14
2018-02-16T12:32:23.264Z,13.73
2018-02-16T12:34:50.745Z,13.91
2018-02-16T12:37:19.321Z,13.58
2018-02-16T12:39:49.128Z,13.75
2018-02-16T12:42:16.914Z,14.35
2018-02-16T12:44:44.875Z,14.38
2018-02-16T12:47:12.347Z,14.03
2018-02-16T12:49:39.829Z,14.25
2018-02-16T12:52:07.453Z,14.75
2018-02-16T12:54:35.503Z,15.23
2018-02-16T12:57:02.973Z,15.62
2018-02-16T12:59:30.545Z,15.41
2018-02-16T13:01:58.044Z,15.73
2018-02-16T13:04:25.582Z,16.70
2018-02-16T13:06:53.222Z,16.97
2018-02-16T13:09:20.942Z,16.84
2018-02-16T13:11:48.410Z,17.26
2018-02-16T13:14:15.911Z,16.70
2018-02-16T13:16:43.499Z,16.60
2018-02-16T13:19:10.981Z,17.68
2018-02-16T13:21:38.429Z,17.89
2018-02-16T13:24:07.237Z,17.58
2018-02-16T13:26:34.749Z,18.26
2018-02-16T13:29:02.438Z,18.74
2018-02-16T13:31:29.901Z,19.29
2018-02-16T13:33:57.369Z,19.77
2018-02-16T13:36:24.864Z,19.32
2018-02-16T13:38:52.400Z,17.97
2018-02-16T13:41:19.890Z,18.51
2018-02-16T13:43:47.481Z,19.21
2018-02-16T13:46:15.104Z,18.92
2018-02-16T13:48:42.576Z,19.15
2018-02-16T13:51:10.020Z,18.31
2018-02-16T13:53:37.490Z,18.37
2018-02-16T13:56:04.945Z,18.82
2018-02-16T13:58:32.414Z,19.40
2018-02-16T14:00:59.997Z,19.95
2018-02-16T14:03:27.628Z,20.06
2018-02-16T14:05:55.108Z,20.52
2018-02-16T14:08:22.676Z,20.65
2018-02-16T14:10:50.252Z,20.46
2018-02-16T14:13:17.792Z,21.13
2018-02-16T14:15:45.244Z,20.40
2018-02-16T14:18:12.701Z,19.77
2018-02-16T14:20:40.141Z,20.33
2018-02-16T14:23:07.790Z,21.01
2018-02-16T14:25:35.250Z,19.93
2018-02-16T14:28:02.717Z,20.81
2018-02-16T14:30:30.202Z,20.63
2018-02-16T14:32:57.666Z,20.45
2018-02-16T14:35:25.160Z,20.37
2018-02-16T14:37:52.674Z,20.89
2018-02-16T14:40:20.193Z,20.68
2018-02-16T14:42:47.664Z,20.58
2018-02-16T14:45:15.241Z,20.54
2018-02-16T14:47:42.705Z,21.01
2018-02-16T14:50:10.149Z,21.31
2018-02-16T14:52:37.618Z,21.24
2018-02-16T14:55:05.046Z,20.74
2018-02-16T14:57:35.001Z,20.22
2018-02-16T15:00:03.670Z,18.51
2018-02-16T15:02:31.201Z,19.38
2018-02-16T15:04:58.658Z,19.82
2018-02-16T15:07:26.111Z,18.60
2018-02-16T15:09:53.559Z,17.42
2018-02-16T15:12:20.992Z,15.85
2018-02-16T15:14:48.454Z,15.42
2018-02-16T15:17:16.073Z,14.85
2018-02-16T15:19:43.769Z,14.58
2018-02-16T15:22:11.229Z,14.78
2018-02-16T15:24:38.682Z,14.77
2018-02-16T15:27:06.117Z,14.95
2018-02-16T15:29:33.782Z,14.38
2018-02-16T15:32:01.249Z,14.40
2018-02-16T15:34:28.698Z,14.17
2018-02-16T15:36:56.134Z,14.57
2018-02-16T15:39:29.589Z,14.56
2018-02-16T15:41:59.085Z,14.46
2018-02-16T15:44:26.776Z,14.15
2018-02-16T15:46:54.266Z,14.11
2018-02-16T15:49:21.717Z,14.25
2018-02-16T15:51:50.546Z,13.68
2018-02-16T15:54:18.056Z,13.62
2018-02-16T15:56:45.509Z,13.75
2018-02-16T15:59:12.940Z,13.76
2018-02-16T16:01:40.401Z,13.89
2018-02-16T16:04:07.968Z,13.39
2018-02-16T16:06:35.402Z,13.67
2018-02-16T16:09:02.854Z,13.71
2018-02-16T16:11:30.434Z,13.59
2018-02-16T16:13:57.911Z,13.53
2018-02-16T16:16:25.417Z,13.52
2018-02-16T16:18:52.862Z,13.57
2018-02-16T16:21:21.883Z,13.48
2018-02-16T16:23:49.608Z,13.31
2018-02-16T16:26:17.026Z,13.34
2018-02-16T16:28:44.472Z,13.36
2018-02-16T16:31:12.006Z,13.26
2018-02-16T16:33:39.594Z,12.94
2018-02-16T16:36:07.033Z,13.01
2018-02-16T16:38:34.525Z,13.13
2018-02-16T16:41:02.068Z,12.84
2018-02-16T16:43:29.540Z,13.00
2018-02-16T16:45:56.993Z,12.46
2018-02-16T16:48:24.522Z,12.56
2018-02-16T16:50:52.035Z,12.29
2018-02-16T16:53:19.588Z,12.03
2018-02-16T16:55:47.224Z,12.28
2018-02-16T16:58:15.704Z,12.17
2018-02-16T17:00:43.194Z,12.06
2018-02-16T17:03:10.644Z,12.10
2018-02-16T17:05:38.246Z,11.76
2018-02-16T17:08:05.694Z,12.29
2018-02-16T17:10:33.125Z,12.21
2018-02-16T17:13:00.682Z,12.22
2018-02-16T17:15:28.172Z,11.82
2018-02-16T17:17:55.674Z,11.88
2018-02-16T17:20:23.104Z,11.69
2018-02-16T17:22:50.559Z,11.77
2018-02-16T17:25:17.992Z,11.82
2018-02-16T17:27:45.859Z,11.36
2018-02-16T17:30:13.316Z,11.07
2018-02-16T17:32:40.846Z,11.11
2018-02-16T17:35:08.418Z,11.17
2018-02-16T17:37:35.851Z,11.29
2018-02-16T17:40:03.304Z,11.30
2018-02-16T17:42:30.720Z,10.90
2018-02-16T17:44:58.161Z,10.81
2018-02-16T17:47:25.596Z,10.68
2018-02-16T17:49:53.050Z,10.62
2018-02-16T17:52:20.479Z,10.49
2018-02-16T17:54:47.925Z,10.83
2018-02-16T17:57:15.381Z,10.63
2018-02-16T17:59:42.817Z,10.67
2018-02-16T18:02:10.290Z,10.74
2018-02-16T18:04:37.889Z,10.84
2018-02-16T18:07:05.337Z,10.97
2018-02-16T18:09:32.774Z,10.95
2018-02-16T18:12:00.544Z,10.93
2018-02-16T18:14:27.973Z,11.03
2018-02-16T18:16:55.417Z,10.83
2018-02-16T18:19:22.850Z,10.90
2018-02-16T18:21:50.377Z,10.87
2018-02-16T18:24:17.814Z,10.93
2018-02-16T18:26:46.136Z,10.76
2018-02-16T18:29:13.571Z,10.77
2018-02-16T18:31:40.996Z,10.68
2018-02-16T18:34:08.455Z,10.79
2018-02-16T18:36:35.876Z,10.86
2018-02-16T18:39:03.330Z,10.45
2018-02-16T18:41:30.784Z,10.48
2018-02-16T18:43:58.249Z,10.61
2018-02-16T18:46:25.744Z,10.80
2018-02-16T18:48:53.185Z,10.52
2018-02-16T18:51:20.633Z,10.60
2018-02-16T18:53:48.089Z,10.59
2018-02-16T18:56:16.502Z,10.40
2018-02-16T18:58:43.947Z,10.31
2018-02-16T19:01:11.969Z,10.54
2018-02-16T19:03:39.474Z,10.44
2018-02-16T19:06:06.993Z,10.58
2018-02-16T19:08:34.466Z,10.54
2018-02-16T19:11:01.949Z,10.15
2018-02-16T19:13:29.428Z,10.18
2018-02-16T19:15:56.929Z,10.08
2018-02-16T19:18:24.348Z,10.35
2018-02-16T19:20:51.778Z,10.28
2018-02-16T19:23:19.230Z,10.04
2018-02-16T19:25:46.898Z,10.15
2018-02-16T19:28:14.453Z,10.37
2018-02-16T19:30:41.893Z,10.44
2018-02-16T19:33:09.341Z,10.06
2018-02-16T19:35:37.162Z,10.41
2018-02-16T19:38:04.689Z,10.41
2018-02-16T19:40:32.129Z,9.99
2018-02-16T19:43:01.114Z,10.09
2018-02-16T19:45:28.563Z,10.04
2018-02-16T19:47:55.986Z,9.79
2018-02-16T19:50:23.611Z,9.80
2018-02-16T19:52:51.078Z,9.74
2018-02-16T19:55:18.626Z,9.78
2018-02-16T19:57:46.582Z,9.93
2018-02-16T20:00:14.504Z,9.57
2018-02-16T20:02:42.020Z,9.87
2018-02-16T20:05:09.499Z,9.79
2018-02-16T20:07:37.397Z,9.56
2018-02-16T20:10:04.934Z,9.79
2018-02-16T20:12:32.467Z,9.95
2018-02-16T20:15:01.815Z,9.78
2018-02-16T20:17:30.377Z,9.91
2018-02-16T20:19:57.851Z,9.48
2018-02-16T20:22:25.365Z,9.46
2018-02-16T20:24:58.037Z,9.53
2018-02-16T20:27:29.890Z,9.44
2018-02-16T20:29:57.739Z,9.34
2018-02-16T20:32:25.219Z,9.49
2018-02-16T20:34:52.710Z,9.39
2018-02-16T20:37:21.317Z,9.42
2018-02-16T20:39:48.915Z,9.51
2018-02-16T20:42:16.846Z,9.39
2018-02-16T20:44:44.296Z,9.58
2018-02-16T20:47:11.965Z,9.64
2018-02-16T20:49:39.428Z,9.77
2018-02-16T20:52:06.863Z,9.28
2018-02-16T20:54:34.392Z,9.28
2018-02-16T20:57:01.841Z,9.47
2018-02-16T20:59:29.281Z,9.65
2018-02-16T21:01:56.713Z,9.15
2018-02-16T21:04:25.157Z,9.40
2018-02-16T21:06:52.610Z,9.37
2018-02-16T21:09:20.069Z,9.24
2018-02-16T21:11:47.516Z,9.28
2018-02-16T21:14:14.974Z,9.33
2018-02-16T21:16:42.999Z,9.31
2018-02-16T21:19:10.598Z,9.17
2018-02-16T21:21:38.070Z,9.28
2018-02-16T21:24:05.625Z,9.18
2018-02-16T21:26:33.214Z,9.02
2018-02-16T21:29:00.637Z,8.76
2018-02-16T21:31:28.128Z,8.89
2018-02-16T21:33:55.565Z,9.06
2018-02-16T21:36:23.018Z,8.96
2018-02-16T21:38:50.478Z,9.02
2018-02-16T21:41:17.929Z,8.61
2018-02-16T21:43:45.407Z,9.12
2018-02-16T21:46:12.864Z,9.03
2018-02-16T21:48:40.292Z,9.07
2018-02-16T21:51:07.756Z,8.94
2018-02-16T21:53:35.313Z,9.08
2018-02-16T21:56:02.769Z,9.14
2018-02-16T21:58:30.193Z,9.07
2018-02-16T22:00:57.642Z,8.90
2018-02-16T22:03:25.061Z,8.84
2018-02-16T22:05:52.654Z,8.88
2018-02-16T22:08:20.122Z,8.78
2018-02-16T22:10:47.552Z,8.70
2018-02-16T22:13:15.222Z,8.53
2018-02-16T22:15:42.808Z,8.69
2018-02-16T22:18:10.595Z,8.63
2018-02-16T22:20:38.473Z,8.78
2018-02-16T22:23:06.542Z,8.39
2018-02-16T22:25:34.045Z,8.45
2018-02-16T22:28:01.683Z,8.59
2018-02-16T22:30:29.416Z,8.63
2018-02-16T22:32:56.866Z,8.76
2018-02-16T22:35:24.443Z,8.67
2018-02-16T22:37:52.108Z,8.70
2018-02-16T22:40:19.702Z,8.51
2018-02-16T22:42:51.273Z,8.40
2018-02-16T22:45:18.906Z,8.17
2018-02-16T22:47:48.560Z,8.34
2018-02-16T22:50:16.089Z,8.30
2018-02-16T22:52:43.805Z,8.43
2018-02-16T22:55:12.213Z,8.39
2018-02-16T22:57:39.978Z,8.57
2018-02-16T23:00:07.524Z,8.59
2018-02-16T23:02:35.176Z,8.72
2018-02-16T23:05:02.685Z,8.21
2018-02-16T23:07:30.247Z,8.53
2018-02-16T23:09:57.724Z,8.54
2018-02-16T23:12:25.503Z,8.56
2018-02-16T23:14:53.002Z,8.42
2018-02-16T23:17:20.645Z,8.52
2018-02-16T23:19:48.208Z,8.23
2018-02-16T23:22:15.987Z,8.39
2018-02-16T23:24:43.723Z,8.22
2018-02-16T23:27:11.410Z,8.31
2018-02-16T23:29:38.969Z,8.27
2018-02-16T23:32:06.556Z,8.29
2018-02-16T23:34:34.251Z,8.31
2018-02-16T23:37:01.805Z,8.15
2018-02-16T23:39:30.864Z,8.30
2018-02-16T23:41:58.346Z,8.09
2018-02-16T23:44:25.797Z,8.00
2018-02-16T23:46:53.403Z,7.84
2018-02-16T23:49:20.877Z,8.15
2018-02-16T23:51:49.019Z,8.21
2018-02-16T23:54:17.657Z,8.08
2018-02-16T23:56:45.601Z,7.92
2018-02-16T23:59:13.070Z,8.09
